Hlavní strana
METAR-TAF:

METAR-TAF

Letiště :

Damašek, Sýrie

zeměpisná šířka: 33-25N, zeměpisná délka: 036-31E, výška: 608 m

Aktuální stav počasí

Zpráva byla vytvořena před 48 minutami, v 14:00 UTC
Východojihovýchodní vítr 7 kt
Teplota 29°C
Vlhkost vzduchu 11%
Tlak 1013 hPa
Viditelnost 10 km a více
Žádná oblačnost pod 1500 m, nevyskytují se cumulonimby.

METAR: OSDI 241400Z 11007KT CAVOK 29/M05 Q1013

Čas: 17:48 (14:48 UTC)

Předpověď počasí

Předpověď platná od 24 v 12 UTC do 25 v 18 UTC
Jihozápadní vítr 10 kt
Viditelnost 10 km a více
Dočasný
od 24 v 12 UTC do 24 v 18 UTC
Západní vítr 10 kt s nárazy do 20 kt
Viditelnost: 8000 m
Skoro jasno ve výšce 3000 ft
Polojasno ve výšce 10000 ft

TAF: OSDI 2412/2518 22010KT 9999 FWE030 TEMPO 2412/2418 28010G20KT 8000 FEW030 SCT100

Stav a předpovědi počasí z více než 4 000 letišť (zprávy METAR a TAF).

Červené a žluté tečky na mapě představují dostupné meteorologické stanice.

Když kurzor umístíte na tečku, zobrazí se název stanice.

Pak kliknutím zobrazíte stav a předpověď počasí.

Chcete-li změnit mapu, kliknutím na zelené tlačítko se znaménkem +mapu přiblížíte, kliknutím na zelené tlačítko se znaménkem – mapu oddálíte a kliknutím na zelené šipky přejdete na sousední mapy.


METAR-TAF: